Time;durP1;ratioP1;P1;durP2;ratioP2;P2;SDS_P1;SDS_P2;PMS_P1;PMS_P2;Temp;Humidity;BMP_temperature;BMP_pressure;BME280_temperature;BME280_humidity;BME280_pressure;Samples;Min_cycle;Max_cycle;Signal;HPM_P1;HPM_P2
2021/03/25 00:01:29;;;;;;;47.20;29.58;;;9.60;70.00;;;;;;5065027;28;20072;-48
2021/03/25 00:03:55;;;;;;;45.33;28.83;;;9.50;70.10;;;;;;5061639;28;20040;-50
2021/03/25 00:06:23;;;;;;;42.90;28.15;;;9.40;70.40;;;;;;5069214;28;20130;-53
2021/03/25 00:08:48;;;;;;;42.88;29.67;;;9.30;71.00;;;;;;5066267;28;20370;-50
2021/03/25 00:11:14;;;;;;;44.30;29.65;;;9.40;70.90;;;;;;5066421;28;20105;-55
2021/03/25 00:13:40;;;;;;;43.08;29.48;;;9.40;70.90;;;;;;5057045;28;20389;-49
2021/03/25 00:16:07;;;;;;;47.35;29.15;;;9.30;70.90;;;;;;5035489;28;20037;-53
2021/03/25 00:18:32;;;;;;;48.55;30.33;;;9.30;71.30;;;;;;5044687;28;20028;-53
2021/03/25 00:20:59;;;;;;;48.65;30.77;;;9.20;71.20;;;;;;5072551;28;20063;-49
2021/03/25 00:23:24;;;;;;;50.05;30.33;;;9.20;71.20;;;;;;5071464;28;20044;-56
2021/03/25 00:25:50;;;;;;;45.40;30.15;;;9.20;71.20;;;;;;5073104;28;20024;-52
2021/03/25 00:28:18;;;;;;;45.03;29.73;;;9.20;71.30;;;;;;5073036;28;20123;-51
2021/03/25 00:30:45;;;;;;;43.58;28.25;;;9.30;71.30;;;;;;5055093;28;20040;-52
2021/03/25 00:33:13;;;;;;;41.78;27.50;;;9.30;71.30;;;;;;5055043;28;20036;-57
2021/03/25 00:35:39;;;;;;;44.45;29.15;;;9.30;71.30;;;;;;5072963;28;20036;-57
2021/03/25 00:38:06;;;;;;;43.92;29.73;;;9.30;71.50;;;;;;5055717;28;20028;-52
2021/03/25 00:40:32;;;;;;;44.58;29.02;;;9.20;72.00;;;;;;5065052;28;20567;-48
2021/03/25 00:42:59;;;;;;;41.85;28.83;;;9.20;72.40;;;;;;5064524;28;20040;-49
2021/03/25 00:45:37;;;;;;;44.53;28.48;;;9.20;72.10;;;;;;5064723;28;20036;-58
2021/03/25 00:48:03;;;;;;;45.45;30.98;;;9.10;72.40;;;;;;5065948;28;20033;-50
2021/03/25 00:50:33;;;;;;;42.55;28.75;;;9.00;72.90;;;;;;5043862;28;20033;-53
2021/03/25 00:52:59;;;;;;;43.45;28.95;;;9.00;73.00;;;;;;5049099;28;20123;-49
2021/03/25 00:55:26;;;;;;;49.05;30.45;;;9.10;72.90;;;;;;5058264;28;20168;-48
2021/03/25 00:57:52;;;;;;;48.42;30.73;;;9.00;72.80;;;;;;5050703;28;20035;-54
2021/03/25 01:00:23;;;;;;;45.65;28.92;;;8.90;72.90;;;;;;5067226;28;20046;-52
2021/03/25 01:02:48;;;;;;;49.03;30.13;;;8.80;73.10;;;;;;5062345;28;20021;-49
2021/03/25 01:05:14;;;;;;;49.75;30.17;;;8.80;73.00;;;;;;5060615;28;20510;-52
2021/03/25 01:07:39;;;;;;;49.63;30.98;;;8.70;73.10;;;;;;5064212;28;20039;-59
2021/03/25 01:10:15;;;;;;;47.78;30.38;;;8.80;73.20;;;;;;5061541;28;20032;-52
2021/03/25 01:12:41;;;;;;;48.28;30.60;;;8.80;73.00;;;;;;5044680;28;20075;-50
2021/03/25 01:15:08;;;;;;;46.78;30.23;;;8.70;73.20;;;;;;5060962;28;20045;-53
2021/03/25 01:17:45;;;;;;;50.83;31.95;;;8.80;73.10;;;;;;5062116;28;20094;-52
2021/03/25 01:20:16;;;;;;;46.63;29.30;;;8.80;72.80;;;;;;5059463;28;20087;-50
2021/03/25 01:22:42;;;;;;;52.13;31.00;;;8.80;72.90;;;;;;5049751;28;20118;-53
2021/03/25 01:25:08;;;;;;;51.75;32.70;;;8.80;72.80;;;;;;5052323;28;20635;-49
2021/03/25 01:27:33;;;;;;;49.95;30.67;;;8.80;72.70;;;;;;5051419;28;20091;-51
2021/03/25 01:29:59;;;;;;;45.88;31.40;;;8.80;73.10;;;;;;5063586;28;20041;-60
2021/03/25 01:32:24;;;;;;;46.05;30.73;;;8.80;73.30;;;;;;5071829;28;20068;-54
2021/03/25 01:34:50;;;;;;;47.78;29.42;;;8.80;73.30;;;;;;5061765;28;20052;-53
2021/03/25 01:37:15;;;;;;;47.50;29.48;;;8.80;73.60;;;;;;5063953;28;20032;-51
2021/03/25 01:39:41;;;;;;;48.72;30.88;;;8.80;73.70;;;;;;5058089;28;20075;-48
2021/03/25 01:42:30;;;;;;;46.95;30.63;;;8.80;73.60;;;;;;5040638;28;20043;-50
2021/03/25 01:44:56;;;;;;;52.80;30.40;;;8.70;73.90;;;;;;5051799;28;20523;-54
2021/03/25 01:47:22;;;;;;;47.03;31.25;;;8.70;74.20;;;;;;5052263;28;20071;-52
2021/03/25 01:49:47;;;;;;;48.10;30.52;;;8.70;74.00;;;;;;5033755;28;20067;-51
2021/03/25 01:52:53;;;;;;;49.55;32.45;;;8.60;74.00;;;;;;5056687;28;20608;-49
2021/03/25 01:55:48;;;;;;;54.90;32.10;;;8.60;73.00;;;;;;5060320;28;20028;-56
2021/03/25 01:59:07;;;;;;;45.13;29.15;;;8.60;74.50;;;;;;5071562;28;20041;-49
2021/03/25 02:01:52;;;;;;;46.40;27.48;;;8.50;73.90;;;;;;4972041;28;20038;-51
2021/03/25 02:04:27;;;;;;;44.67;29.77;;;8.50;74.20;;;;;;5066917;28;20048;-49
2021/03/25 02:07:02;;;;;;;44.83;28.67;;;8.40;74.20;;;;;;5063317;28;20072;-51
2021/03/25 02:09:37;;;;;;;47.80;28.92;;;8.40;74.60;;;;;;5060226;28;20033;-57
2021/03/25 02:12:09;;;;;;;46.40;28.73;;;8.40;74.80;;;;;;5062319;28;20033;-52
2021/03/25 02:14:56;;;;;;;44.53;29.00;;;8.40;74.90;;;;;;5066334;28;20071;-55
2021/03/25 02:17:30;;;;;;;51.40;31.30;;;8.30;75.00;;;;;;5048931;28;20029;-51
2021/03/25 02:20:08;;;;;;;47.60;29.30;;;8.30;75.20;;;;;;5058096;28;20061;-54
2021/03/25 02:23:18;;;;;;;47.47;28.85;;;8.20;74.20;;;;;;5044529;28;20427;-48
2021/03/25 02:25:59;;;;;;;53.97;30.10;;;8.20;74.90;;;;;;5067966;28;20045;-49
2021/03/25 02:28:48;;;;;;;42.28;28.65;;;8.20;74.90;;;;;;5058651;28;20451;-48
2021/03/25 02:31:15;;;;;;;46.72;28.42;;;8.20;75.00;;;;;;5051316;28;20041;-50
2021/03/25 02:33:47;;;;;;;44.90;28.35;;;8.10;75.10;;;;;;5068057;28;20032;-49
2021/03/25 02:36:17;;;;;;;47.17;28.88;;;8.10;75.30;;;;;;5067175;28;20021;-53
2021/03/25 02:38:56;;;;;;;43.85;28.38;;;8.10;75.10;;;;;;5059243;28;20476;-50
2021/03/25 02:41:32;;;;;;;45.35;29.17;;;8.10;75.60;;;;;;5075098;28;20123;-52
2021/03/25 02:44:03;;;;;;;45.15;27.48;;;8.10;75.80;;;;;;5073960;28;20028;-54
2021/03/25 02:46:35;;;;;;;43.33;28.33;;;8.00;75.70;;;;;;5068839;28;20044;-49
2021/03/25 02:49:05;;;;;;;46.38;28.75;;;8.10;75.00;;;;;;5055812;28;20100;-54
2021/03/25 02:51:43;;;;;;;47.60;28.70;;;8.10;75.20;;;;;;5056034;28;20040;-58
2021/03/25 02:54:09;;;;;;;47.25;29.50;;;8.10;75.20;;;;;;5071121;28;20037;-52
2021/03/25 02:56:39;;;;;;;44.67;28.55;;;7.90;75.80;;;;;;5055582;28;20433;-53
2021/03/25 02:59:09;;;;;;;44.75;27.58;;;7.80;76.20;;;;;;5037097;28;20087;-48
2021/03/25 03:01:39;;;;;;;43.33;29.17;;;7.80;76.70;;;;;;5061367;28;20384;-50
2021/03/25 03:04:16;;;;;;;44.78;27.90;;;7.80;76.70;;;;;;5074506;28;20036;-52
2021/03/25 03:06:50;;;;;;;48.10;29.05;;;7.80;76.80;;;;;;5073381;28;20165;-55
2021/03/25 03:09:21;;;;;;;40.90;26.70;;;7.80;76.30;;;;;;5074343;28;20067;-59
2021/03/25 03:11:50;;;;;;;47.17;29.90;;;7.80;76.50;;;;;;5054773;28;20128;-52
2021/03/25 03:14:39;;;;;;;42.50;27.02;;;7.70;76.60;;;;;;5054883;28;20029;-52
2021/03/25 03:17:11;;;;;;;45.55;28.65;;;7.80;76.60;;;;;;5069295;28;20067;-51
2021/03/25 03:20:21;;;;;;;42.78;27.58;;;7.70;76.60;;;;;;5055196;28;20082;-54
2021/03/25 03:22:48;;;;;;;44.55;26.85;;;7.70;76.50;;;;;;5054198;28;20041;-54
2021/03/25 03:25:19;;;;;;;46.45;29.48;;;7.70;76.40;;;;;;5064950;28;20115;-50
2021/03/25 03:27:49;;;;;;;40.47;26.27;;;7.70;76.50;;;;;;5073902;28;20137;-53
2021/03/25 03:30:22;;;;;;;44.95;28.73;;;7.70;76.30;;;;;;5072854;28;20044;-51
2021/03/25 03:32:56;;;;;;;44.55;28.05;;;7.70;76.00;;;;;;5072637;28;20086;-50
2021/03/25 03:35:35;;;;;;;44.80;26.85;;;7.70;75.60;;;;;;5065106;28;20033;-52
2021/03/25 03:38:27;;;;;;;43.42;26.77;;;7.70;75.80;;;;;;5071494;28;20037;-49
2021/03/25 03:40:54;;;;;;;41.83;25.52;;;7.60;76.20;;;;;;5043210;28;20048;-52
2021/03/25 03:43:21;;;;;;;41.25;26.98;;;7.60;76.10;;;;;;5045144;28;20047;-49
2021/03/25 03:46:08;;;;;;;44.05;27.50;;;7.70;76.10;;;;;;5055637;28;20036;-54
2021/03/25 03:48:44;;;;;;;43.78;27.95;;;7.70;76.50;;;;;;5063031;28;20039;-51
2021/03/25 03:51:20;;;;;;;38.42;26.40;;;7.60;76.40;;;;;;5054173;28;20036;-51
2021/03/25 03:53:46;;;;;;;46.03;28.70;;;7.60;76.90;;;;;;5055739;28;20464;-53
2021/03/25 03:56:28;;;;;;;42.40;25.95;;;7.60;77.20;;;;;;5053513;28;20100;-57
2021/03/25 03:58:56;;;;;;;39.33;25.48;;;7.50;77.50;;;;;;5055370;28;20020;-55
2021/03/25 04:01:58;;;;;;;43.65;28.55;;;7.50;77.30;;;;;;5074775;28;20029;-48
2021/03/25 04:04:33;;;;;;;42.45;26.25;;;7.60;77.20;;;;;;5030262;28;20139;-50
2021/03/25 04:07:01;;;;;;;43.50;27.65;;;7.60;77.00;;;;;;5057331;28;20028;-52
2021/03/25 04:09:45;;;;;;;40.70;27.50;;;7.60;77.00;;;;;;5053066;28;20124;-49
2021/03/25 04:12:15;;;;;;;41.90;27.50;;;7.60;76.70;;;;;;5060442;28;20082;-49
2021/03/25 04:15:00;;;;;;;44.03;27.35;;;7.60;76.80;;;;;;5073627;28;20403;-49
2021/03/25 04:17:30;;;;;;;48.47;27.40;;;7.60;77.00;;;;;;5064955;28;20040;-49
2021/03/25 04:19:59;;;;;;;50.35;29.50;;;7.60;76.50;;;;;;5052945;28;20040;-49
2021/03/25 04:22:28;;;;;;;41.72;27.55;;;7.50;76.60;;;;;;5072946;28;20036;-49
2021/03/25 04:25:14;;;;;;;43.15;26.95;;;7.60;77.00;;;;;;5071824;28;20109;-54
2021/03/25 04:27:44;;;;;;;41.83;26.15;;;7.60;77.10;;;;;;5073158;28;20036;-55
2021/03/25 04:30:32;;;;;;;44.22;28.20;;;7.50;77.40;;;;;;5069764;28;20036;-53
2021/03/25 04:32:58;;;;;;;39.58;25.02;;;7.40;77.80;;;;;;5062561;28;20037;-50
2021/03/25 04:35:24;;;;;;;40.55;27.38;;;7.30;78.10;;;;;;5072598;28;20101;-52
2021/03/25 04:37:52;;;;;;;40.50;25.75;;;7.20;78.10;;;;;;5072291;28;20052;-54
2021/03/25 04:40:23;;;;;;;42.40;26.85;;;7.20;78.20;;;;;;5072488;28;20021;-52
2021/03/25 04:42:49;;;;;;;42.25;25.95;;;7.10;78.40;;;;;;5065080;28;20036;-54
2021/03/25 04:45:24;;;;;;;40.40;25.75;;;7.10;78.50;;;;;;5069798;28;20123;-52
2021/03/25 04:47:53;;;;;;;38.55;24.73;;;7.20;78.50;;;;;;5053093;28;20048;-49
2021/03/25 04:50:24;;;;;;;38.28;26.00;;;7.10;78.40;;;;;;5052644;28;20037;-55
2021/03/25 04:52:59;;;;;;;40.85;26.58;;;7.10;78.40;;;;;;5070433;28;20032;-51
2021/03/25 04:55:25;;;;;;;79.85;46.72;;;7.10;78.60;;;;;;5072354;28;20077;-51
2021/03/25 04:57:52;;;;;;;79.43;46.97;;;7.10;78.80;;;;;;5035647;28;20120;-53
2021/03/25 05:00:24;;;;;;;67.60;38.60;;;7.10;78.60;;;;;;5068607;28;20025;-53
2021/03/25 05:02:49;;;;;;;48.92;30.30;;;7.10;78.50;;;;;;5072202;28;20032;-54
2021/03/25 05:05:20;;;;;;;42.15;26.58;;;7.20;78.10;;;;;;5038802;28;20382;-57
2021/03/25 05:07:50;;;;;;;42.70;26.08;;;7.10;78.10;;;;;;5066570;28;20080;-58
2021/03/25 05:10:23;;;;;;;42.85;28.23;;;7.00;78.30;;;;;;5072422;28;20025;-53
2021/03/25 05:12:54;;;;;;;38.70;25.02;;;6.90;78.70;;;;;;5037835;28;20496;-51
2021/03/25 05:15:22;;;;;;;40.03;25.60;;;6.90;78.70;;;;;;5034592;28;20477;-54
2021/03/25 05:18:00;;;;;;;41.83;27.15;;;7.00;78.50;;;;;;5068670;28;20443;-52
2021/03/25 05:20:57;;;;;;;38.17;25.25;;;6.90;78.70;;;;;;5055671;28;20025;-54
2021/03/25 05:23:33;;;;;;;42.78;26.45;;;7.00;78.60;;;;;;5052511;28;20515;-49
2021/03/25 05:26:14;;;;;;;39.45;25.40;;;7.10;78.60;;;;;;5038501;28;20068;-52
2021/03/25 05:28:45;;;;;;;39.28;24.70;;;7.10;78.40;;;;;;5069776;28;20036;-53
2021/03/25 05:31:14;;;;;;;46.88;27.45;;;7.10;78.40;;;;;;5066691;28;20488;-51
2021/03/25 05:33:43;;;;;;;41.88;26.88;;;7.10;78.10;;;;;;5052002;28;20040;-54
2021/03/25 05:36:11;;;;;;;39.58;26.05;;;7.10;78.30;;;;;;5056022;28;20054;-52
2021/03/25 05:38:38;;;;;;;41.17;25.80;;;7.10;78.20;;;;;;5071497;28;20035;-51
2021/03/25 05:41:04;;;;;;;41.03;27.48;;;7.10;78.40;;;;;;5058860;28;20421;-56
2021/03/25 05:44:03;;;;;;;39.05;24.80;;;7.10;78.40;;;;;;5052086;28;20037;-49
2021/03/25 05:46:50;;;;;;;40.78;27.08;;;7.10;78.20;;;;;;5065883;28;20495;-52
2021/03/25 05:49:26;;;;;;;41.75;25.85;;;7.00;78.90;;;;;;5051258;28;20404;-49
2021/03/25 05:52:20;;;;;;;44.85;27.52;;;6.90;79.00;;;;;;5069554;28;20032;-49
2021/03/25 05:55:05;;;;;;;47.42;27.50;;;7.00;78.90;;;;;;5036014;28;20024;-50
2021/03/25 05:57:49;;;;;;;;;;;7.20;78.40;;;;;;5072115;28;20032;-58
2021/03/25 06:00:26;;;;;;;45.47;25.80;;;7.10;78.20;;;;;;5065237;28;19916;-51
2021/03/25 06:03:26;;;;;;;41.55;25.50;;;7.20;77.90;;;;;;5055557;28;20454;-50
2021/03/25 06:05:56;;;;;;;43.63;25.10;;;7.30;78.20;;;;;;5028158;28;20044;-55
2021/03/25 06:08:24;;;;;;;46.58;27.50;;;7.30;78.30;;;;;;5070406;28;20028;-48
2021/03/25 06:11:22;;;;;;;45.00;26.90;;;7.20;78.10;;;;;;5071125;28;20074;-54
2021/03/25 06:14:25;;;;;;;44.70;26.95;;;7.30;77.60;;;;;;5059685;28;20075;-50
2021/03/25 06:17:14;;;;;;;40.22;25.30;;;7.40;77.00;;;;;;5051444;28;20480;-50
2021/03/25 06:20:07;;;;;;;45.30;26.42;;;7.50;76.80;;;;;;5064214;28;20526;-49
2021/03/25 06:23:00;;;;;;;44.90;26.52;;;7.50;76.70;;;;;;5061240;28;20044;-51
2021/03/25 06:25:41;;;;;;;42.35;25.95;;;7.60;76.50;;;;;;5020225;28;20041;-51
2021/03/25 06:28:15;;;;;;;43.83;25.88;;;7.60;76.00;;;;;;5067748;28;20392;-53
2021/03/25 06:30:58;;;;;;;40.03;26.30;;;7.70;75.70;;;;;;5051487;28;20044;-53
2021/03/25 06:33:33;;;;;;;43.05;25.73;;;7.90;75.30;;;;;;5052072;28;20119;-53
2021/03/25 06:36:10;;;;;;;41.65;25.40;;;8.00;74.90;;;;;;5052033;28;20449;-55
2021/03/25 06:38:48;;;;;;;46.38;27.00;;;8.10;75.20;;;;;;5040546;28;20064;-54
2021/03/25 06:41:43;;;;;;;39.95;27.35;;;8.20;74.90;;;;;;5052249;28;20033;-55
2021/03/25 06:44:18;;;;;;;43.72;25.52;;;8.30;74.70;;;;;;5062072;28;20040;-51
2021/03/25 06:46:45;;;;;;;;;;;8.40;74.60;;;;;;5071840;28;20037;-55
2021/03/25 06:49:23;;;;;;;45.58;26.02;;;8.40;74.30;;;;;;5042536;28;19955;-50
2021/03/25 06:51:49;;;;;;;42.58;26.80;;;8.40;73.90;;;;;;5051659;28;20036;-53
2021/03/25 06:54:22;;;;;;;51.30;29.42;;;8.50;73.80;;;;;;5058976;28;20098;-53
2021/03/25 06:56:51;;;;;;;43.75;25.52;;;8.50;74.00;;;;;;5051195;28;20037;-51
2021/03/25 06:59:38;;;;;;;42.45;27.13;;;8.50;74.50;;;;;;5042566;28;20033;-49
2021/03/25 07:02:29;;;;;;;43.05;27.75;;;8.60;74.40;;;;;;5053330;28;20040;-51
2021/03/25 07:04:58;;;;;;;43.05;26.92;;;8.60;74.20;;;;;;5047120;28;20061;-53
2021/03/25 07:07:29;;;;;;;41.70;27.92;;;8.60;74.20;;;;;;5062496;28;20032;-49
2021/03/25 07:09:57;;;;;;;42.75;25.98;;;8.60;74.10;;;;;;5057549;28;20387;-52
2021/03/25 07:12:29;;;;;;;45.08;27.30;;;8.60;74.20;;;;;;5016858;28;20037;-52
2021/03/25 07:14:54;;;;;;;44.05;27.40;;;8.60;73.40;;;;;;5064401;28;20113;-53
2021/03/25 07:17:39;;;;;;;42.58;28.17;;;8.60;73.90;;;;;;5053204;28;20497;-53
2021/03/25 07:20:46;;;;;;;44.80;28.05;;;8.60;74.10;;;;;;5073697;28;20377;-57
2021/03/25 07:23:16;;;;;;;43.95;28.27;;;8.80;73.80;;;;;;5069405;28;20484;-51
2021/03/25 07:25:44;;;;;;;43.70;26.02;;;8.80;73.60;;;;;;5059893;28;20041;-50
2021/03/25 07:28:19;;;;;;;43.63;28.00;;;9.00;73.20;;;;;;5071415;28;20056;-50
2021/03/25 07:30:49;;;;;;;49.92;28.98;;;9.10;72.80;;;;;;5072807;28;20488;-53
2021/03/25 07:33:21;;;;;;;46.25;27.65;;;9.00;72.30;;;;;;5056220;28;20101;-60
2021/03/25 07:35:50;;;;;;;48.75;28.33;;;9.00;72.20;;;;;;5071972;28;20078;-56
2021/03/25 07:38:20;;;;;;;42.30;27.92;;;9.00;72.80;;;;;;5075592;28;20028;-54
2021/03/25 07:40:46;;;;;;;50.90;28.15;;;9.20;72.60;;;;;;5054488;28;20074;-54
2021/03/25 07:43:22;;;;;;;42.83;28.90;;;9.40;72.10;;;;;;5036448;28;20127;-54
2021/03/25 07:45:48;;;;;;;43.28;28.17;;;9.40;72.80;;;;;;5053838;28;20135;-52
2021/03/25 07:48:21;;;;;;;44.25;28.42;;;9.60;72.20;;;;;;5053755;28;20070;-50
2021/03/25 07:50:49;;;;;;;42.22;28.20;;;9.80;71.90;;;;;;5074016;28;20036;-54
2021/03/25 07:53:21;;;;;;;44.95;28.58;;;9.80;71.80;;;;;;5073807;28;20060;-53
2021/03/25 07:55:47;;;;;;;46.08;28.67;;;9.70;71.50;;;;;;5053945;28;20654;-50
2021/03/25 07:58:36;;;;;;;46.50;29.20;;;9.80;71.80;;;;;;5053737;28;20029;-52
2021/03/25 08:01:09;;;;;;;43.05;27.17;;;9.40;72.80;;;;;;5054220;28;20497;-51
2021/03/25 08:04:00;;;;;;;43.92;28.10;;;9.60;72.60;;;;;;5054876;28;20407;-53
2021/03/25 08:06:30;;;;;;;43.03;28.40;;;9.90;72.10;;;;;;5066292;28;20404;-57
2021/03/25 08:09:04;;;;;;;42.10;26.20;;;10.00;71.90;;;;;;5056659;28;20024;-58
2021/03/25 08:11:31;;;;;;;42.28;26.58;;;10.20;71.20;;;;;;5067816;28;20037;-50
2021/03/25 08:14:19;;;;;;;43.53;27.50;;;10.40;71.40;;;;;;5056120;28;20129;-53
2021/03/25 08:16:48;;;;;;;51.17;29.88;;;10.40;70.70;;;;;;5054801;28;20095;-52
2021/03/25 08:19:32;;;;;;;46.83;28.25;;;10.20;70.90;;;;;;5056086;28;20476;-53
2021/03/25 08:22:09;;;;;;;47.08;29.55;;;10.30;70.90;;;;;;5054176;28;20386;-57
2021/03/25 08:25:17;;;;;;;45.42;29.25;;;9.90;72.40;;;;;;5055090;28;20049;-52
2021/03/25 08:27:57;;;;;;;50.60;27.88;;;10.20;72.00;;;;;;5054645;28;20119;-55
2021/03/25 08:30:25;;;;;;;42.50;28.13;;;10.50;71.20;;;;;;5071658;28;20373;-53
2021/03/25 08:32:59;;;;;;;42.65;27.45;;;10.30;72.10;;;;;;5073179;28;20025;-49
2021/03/25 08:35:51;;;;;;;39.22;27.33;;;10.60;71.80;;;;;;5053525;28;20032;-55
2021/03/25 08:38:35;;;;;;;38.03;27.50;;;10.80;70.90;;;;;;5039957;28;20063;-54
2021/03/25 08:41:22;;;;;;;43.72;28.80;;;10.70;71.00;;;;;;5053242;28;20033;-56
2021/03/25 08:44:03;;;;;;;50.33;29.13;;;10.20;72.90;;;;;;5058816;28;20445;-51
2021/03/25 08:46:37;;;;;;;44.53;27.80;;;10.40;72.80;;;;;;5071771;28;20024;-56
2021/03/25 08:49:13;;;;;;;;;;;10.80;71.70;;;;;;5072486;28;20025;-51
2021/03/25 08:51:41;;;;;;;42.58;27.77;;;11.10;70.00;;;;;;5073064;28;19904;-54
2021/03/25 08:54:19;;;;;;;46.40;28.38;;;11.20;69.80;;;;;;5053443;28;20044;-53
2021/03/25 08:57:10;;;;;;;46.33;29.58;;;11.30;69.70;;;;;;5073026;28;20046;-53
2021/03/25 08:59:45;;;;;;;48.30;30.20;;;11.50;69.00;;;;;;5061351;28;20123;-52
2021/03/25 09:02:29;;;;;;;44.40;28.10;;;11.60;68.60;;;;;;5052801;28;20100;-53
2021/03/25 09:05:07;;;;;;;48.03;29.10;;;11.60;68.60;;;;;;5047743;28;20037;-57
2021/03/25 09:07:35;;;;;;;47.33;29.33;;;11.70;68.70;;;;;;5059780;28;20033;-59
2021/03/25 09:10:09;;;;;;;42.00;27.60;;;11.60;68.60;;;;;;5053748;28;20057;-49
2021/03/25 09:12:35;;;;;;;53.00;30.73;;;11.90;68.00;;;;;;5052478;28;20029;-56
2021/03/25 09:15:05;;;;;;;48.25;28.80;;;12.20;66.80;;;;;;5065079;28;20044;-57
2021/03/25 09:17:41;;;;;;;49.75;29.73;;;12.50;66.10;;;;;;5069704;28;20471;-62
2021/03/25 09:20:16;;;;;;;45.13;28.52;;;12.80;65.80;;;;;;5068998;28;20060;-56
2021/03/25 09:22:45;;;;;;;44.10;28.10;;;12.90;65.20;;;;;;5048319;28;20040;-51
2021/03/25 09:25:18;;;;;;;53.30;29.50;;;13.00;64.50;;;;;;5062378;28;20250;-54
2021/03/25 09:28:06;;;;;;;47.47;28.52;;;13.10;64.60;;;;;;5062530;28;20040;-52
2021/03/25 09:30:36;;;;;;;44.95;29.33;;;13.20;64.20;;;;;;5062442;28;20098;-53
2021/03/25 09:33:37;;;;;;;47.30;29.33;;;13.30;63.70;;;;;;5026944;28;20055;-52
2021/03/25 09:36:31;;;;;;;46.05;29.10;;;13.20;64.00;;;;;;5066992;28;20496;-52
2021/03/25 09:38:57;;;;;;;48.08;30.15;;;13.10;63.60;;;;;;5046892;28;20071;-51
2021/03/25 09:41:26;;;;;;;52.90;31.95;;;13.10;63.50;;;;;;5061645;28;20064;-54
2021/03/25 09:44:10;;;;;;;54.35;30.45;;;13.30;62.30;;;;;;5059944;28;20095;-57
2021/03/25 09:46:54;;;;;;;54.95;31.58;;;13.40;62.10;;;;;;5062724;28;20039;-49
2021/03/25 09:49:29;;;;;;;53.08;30.92;;;13.60;61.00;;;;;;5061871;28;20036;-54
2021/03/25 09:52:11;;;;;;;48.13;29.60;;;13.50;60.50;;;;;;5050595;28;20064;-51
2021/03/25 09:54:54;;;;;;;52.17;31.13;;;13.90;59.40;;;;;;5060735;28;20029;-52
2021/03/25 09:57:33;;;;;;;57.08;33.35;;;14.10;58.40;;;;;;5065253;28;20024;-55
2021/03/25 10:00:00;;;;;;;56.60;33.55;;;14.20;58.10;;;;;;5071939;28;20563;-51
2021/03/25 10:02:41;;;;;;;59.90;33.30;;;14.20;58.00;;;;;;5049937;28;20029;-57
2021/03/25 10:05:25;;;;;;;55.97;33.10;;;14.20;58.20;;;;;;5065245;28;20028;-51
2021/03/25 10:07:54;;;;;;;52.85;30.88;;;14.00;58.40;;;;;;5065448;28;20956;-54
2021/03/25 10:10:23;;;;;;;54.45;32.30;;;14.10;58.60;;;;;;5062982;28;20051;-61
2021/03/25 10:13:17;;;;;;;55.88;34.30;;;14.20;58.70;;;;;;5061345;28;20020;-53
2021/03/25 10:16:02;;;;;;;56.13;32.60;;;14.30;58.20;;;;;;5068600;28;20067;-56
2021/03/25 10:18:27;;;;;;;58.72;32.83;;;14.40;58.50;;;;;;5059917;28;20048;-51
2021/03/25 10:20:57;;;;;;;55.25;33.08;;;14.40;58.60;;;;;;5047627;28;20396;-54
2021/03/25 10:23:25;;;;;;;50.58;30.98;;;14.50;58.40;;;;;;5053469;28;20087;-55
2021/03/25 10:25:54;;;;;;;51.25;33.30;;;14.10;59.00;;;;;;5063701;28;20140;-52
2021/03/25 10:28:25;;;;;;;48.58;30.55;;;13.90;60.10;;;;;;5061317;28;20064;-60
2021/03/25 10:31:21;;;;;;;48.13;30.02;;;13.70;60.80;;;;;;5063011;28;20036;-53
2021/03/25 10:33:52;;;;;;;55.95;30.52;;;13.80;61.10;;;;;;5063190;28;20047;-52
2021/03/25 10:36:38;;;;;;;51.30;31.55;;;13.90;60.50;;;;;;5062648;28;20081;-47
2021/03/25 10:39:07;;;;;;;52.10;31.95;;;14.00;60.40;;;;;;5043692;28;20301;-52
2021/03/25 10:41:37;;;;;;;52.75;31.70;;;14.20;60.30;;;;;;5060765;28;20040;-52
2021/03/25 10:44:35;;;;;;;59.33;31.20;;;14.00;60.50;;;;;;5049243;28;20024;-49
2021/03/25 10:47:05;;;;;;;49.90;31.17;;;13.90;60.60;;;;;;5029269;28;20032;-50
2021/03/25 10:49:42;;;;;;;50.25;32.67;;;14.00;60.50;;;;;;5063774;28;20488;-55
2021/03/25 10:52:33;;;;;;;50.72;31.52;;;14.20;60.30;;;;;;5061382;28;20033;-50
2021/03/25 10:55:24;;;;;;;51.85;30.05;;;14.60;59.40;;;;;;5064640;28;20102;-54
2021/03/25 10:57:52;;;;;;;57.03;31.95;;;14.80;58.90;;;;;;5046654;28;20036;-52
2021/03/25 11:00:34;;;;;;;58.95;32.28;;;14.90;58.20;;;;;;5065270;28;20036;-52
2021/03/25 11:03:02;;;;;;;50.50;32.25;;;14.70;58.60;;;;;;5071555;28;20029;-52
2021/03/25 11:05:30;;;;;;;52.45;31.83;;;14.80;58.70;;;;;;5074037;28;20021;-53
2021/03/25 11:07:59;;;;;;;51.50;34.13;;;14.70;59.10;;;;;;5074557;28;20056;-55
2021/03/25 11:10:26;;;;;;;52.67;31.73;;;15.00;58.50;;;;;;5064624;28;20037;-53
2021/03/25 11:13:18;;;;;;;52.75;32.03;;;15.10;58.50;;;;;;5058290;28;20036;-51
2021/03/25 11:15:46;;;;;;;54.20;32.90;;;15.00;57.30;;;;;;5059217;28;20392;-54
2021/03/25 11:18:22;;;;;;;55.90;32.42;;;14.80;57.00;;;;;;5056114;28;20036;-58
2021/03/25 11:20:49;;;;;;;54.70;33.90;;;15.10;56.40;;;;;;5070694;28;20096;-58
2021/03/25 11:23:18;;;;;;;57.05;35.35;;;15.30;56.20;;;;;;5054545;28;20697;-55
2021/03/25 11:25:44;;;;;;;58.38;34.22;;;15.20;55.80;;;;;;5056542;28;20124;-51
2021/03/25 11:28:15;;;;;;;56.00;34.28;;;15.20;55.90;;;;;;5054151;28;20053;-56
2021/03/25 11:30:47;;;;;;;54.42;33.67;;;15.30;56.00;;;;;;5036950;28;20033;-53
2021/03/25 11:33:28;;;;;;;54.47;33.22;;;15.30;55.60;;;;;;5047152;28;20032;-52
2021/03/25 11:35:55;;;;;;;49.30;32.58;;;15.30;55.20;;;;;;5060221;28;20075;-60
2021/03/25 11:38:29;;;;;;;51.55;32.65;;;15.50;55.30;;;;;;5054286;28;20031;-54
2021/03/25 11:40:59;;;;;;;;;;;15.60;55.60;;;;;;5067953;28;20032;-58
2021/03/25 11:43:44;;;;;;;50.65;32.88;;;15.50;54.80;;;;;;5073584;28;20282;-53
2021/03/25 11:46:22;;;;;;;;;;;15.50;54.70;;;;;;5063059;28;20036;-56
2021/03/25 11:49:09;;;;;;;54.70;33.58;;;15.50;54.80;;;;;;5073608;28;19940;-56
2021/03/25 11:51:40;;;;;;;54.78;33.38;;;15.60;54.60;;;;;;5073095;28;20130;-55
2021/03/25 11:54:39;;;;;;;53.70;33.90;;;15.90;53.60;;;;;;5069518;28;20083;-52
2021/03/25 11:57:17;;;;;;;51.75;32.95;;;15.80;52.60;;;;;;5053615;28;20112;-52
2021/03/25 11:59:43;;;;;;;54.85;36.78;;;16.00;52.00;;;;;;5057002;28;20083;-58
2021/03/25 12:02:17;;;;;;;51.65;34.35;;;16.30;51.20;;;;;;5035556;28;20029;-55
2021/03/25 12:04:43;;;;;;;53.17;34.88;;;16.30;52.10;;;;;;5062005;28;20137;-55
2021/03/25 12:07:11;;;;;;;49.67;32.67;;;16.00;52.30;;;;;;5073202;28;20492;-55
2021/03/25 12:09:56;;;;;;;50.50;34.03;;;16.00;52.50;;;;;;5072750;28;20109;-55
2021/03/25 12:12:21;;;;;;;49.22;33.65;;;16.00;52.80;;;;;;5073349;28;20037;-52
2021/03/25 12:14:47;;;;;;;49.58;33.42;;;16.00;53.00;;;;;;5042031;28;20057;-54
2021/03/25 12:17:13;;;;;;;47.67;32.05;;;16.10;52.80;;;;;;5058432;28;20032;-54
2021/03/25 12:19:38;;;;;;;46.30;31.83;;;16.30;52.20;;;;;;5061558;28;20049;-54
2021/03/25 12:22:06;;;;;;;47.55;32.30;;;16.20;50.00;;;;;;5055156;28;20047;-53
2021/03/25 12:24:32;;;;;;;45.67;31.02;;;16.30;50.40;;;;;;5059213;28;20064;-52
2021/03/25 12:26:57;;;;;;;49.25;32.45;;;16.60;49.50;;;;;;5050193;28;20469;-55
2021/03/25 12:29:23;;;;;;;44.72;29.67;;;16.70;49.40;;;;;;5059250;28;20048;-56
2021/03/25 12:31:48;;;;;;;51.38;31.83;;;16.70;49.50;;;;;;5069872;28;20111;-54
2021/03/25 12:34:15;;;;;;;46.97;33.10;;;16.70;49.50;;;;;;5045084;28;20040;-52
2021/03/25 12:36:41;;;;;;;51.00;32.35;;;16.60;50.90;;;;;;5063295;28;20052;-56
2021/03/25 12:39:08;;;;;;;50.75;33.13;;;16.40;51.60;;;;;;5071644;28;20103;-56
2021/03/25 12:41:35;;;;;;;50.33;32.47;;;16.50;51.60;;;;;;5072313;28;20032;-55
2021/03/25 12:44:02;;;;;;;49.97;31.90;;;16.40;51.90;;;;;;5071791;28;20090;-51
2021/03/25 12:46:27;;;;;;;50.67;32.97;;;16.30;52.10;;;;;;5057318;28;20037;-56
2021/03/25 12:48:54;;;;;;;46.95;31.85;;;16.40;51.60;;;;;;5062659;28;20040;-52
2021/03/25 12:51:23;;;;;;;48.50;33.10;;;16.60;51.50;;;;;;5054414;28;20024;-58
2021/03/25 12:53:49;;;;;;;54.65;33.28;;;16.40;51.20;;;;;;5059873;28;20125;-56
2021/03/25 12:56:24;;;;;;;50.30;33.58;;;16.60;51.30;;;;;;5068244;28;20032;-52
2021/03/25 12:58:50;;;;;;;52.30;32.17;;;17.10;50.20;;;;;;5056293;28;20067;-55
2021/03/25 13:01:22;;;;;;;51.50;34.13;;;17.00;50.10;;;;;;5064335;28;20025;-54
2021/03/25 13:03:48;;;;;;;55.25;32.88;;;17.10;50.30;;;;;;5063937;28;20598;-54
2021/03/25 13:06:14;;;;;;;53.92;32.75;;;17.20;50.00;;;;;;5056517;28;20032;-59
2021/03/25 13:08:41;;;;;;;53.58;32.53;;;17.30;49.40;;;;;;5070144;28;20040;-54
2021/03/25 13:11:08;;;;;;;48.05;31.88;;;17.30;49.50;;;;;;5065773;28;20025;-53
2021/03/25 13:13:34;;;;;;;51.42;33.78;;;17.20;49.60;;;;;;5062311;28;20495;-57